createdAt,value
2018-09-01T00:00:29.799Z,91.46
2018-09-01T00:01:29.951Z,91.84
2018-09-01T00:02:30.097Z,91.94
2018-09-01T00:03:30.248Z,92.41
2018-09-01T00:04:30.397Z,91.94
2018-09-01T00:05:30.548Z,92.50
2018-09-01T00:06:30.702Z,93.84
2018-09-01T00:07:30.872Z,93.17
2018-09-01T00:08:31.000Z,93.17
2018-09-01T00:09:31.149Z,93.27
2018-09-01T00:10:31.300Z,93.17
2018-09-01T00:11:31.449Z,92.89
2018-09-01T00:12:31.596Z,93.65
2018-09-01T00:13:31.747Z,93.89
2018-09-01T00:14:31.895Z,93.70
2018-09-01T00:15:32.044Z,93.41
2018-09-01T00:16:32.197Z,93.74
2018-09-01T00:17:32.347Z,93.74
2018-09-01T00:18:32.498Z,93.08
2018-09-01T00:19:32.645Z,92.89
2018-09-01T00:20:32.795Z,92.41
2018-09-01T00:21:32.948Z,92.89
2018-09-01T00:22:33.093Z,92.60
2018-09-01T00:23:33.251Z,92.60
2018-09-01T00:24:33.397Z,92.84
2018-09-01T00:25:33.543Z,93.22
2018-09-01T00:26:33.692Z,93.13
2018-09-01T00:27:33.840Z,93.13
2018-09-01T00:28:33.988Z,93.03
2018-09-01T00:29:34.138Z,92.94
2018-09-01T00:30:34.301Z,93.22
2018-09-01T00:31:34.441Z,92.84
2018-09-01T00:32:34.586Z,93.79
2018-09-01T00:33:34.739Z,93.41
2018-09-01T00:34:34.885Z,93.98
2018-09-01T00:35:35.036Z,93.70
2018-09-01T00:36:35.186Z,93.51
2018-09-01T00:37:35.337Z,93.60
2018-09-01T00:38:35.486Z,93.41
2018-09-01T00:39:35.637Z,93.22
2018-09-01T00:40:35.784Z,93.22
2018-09-01T00:41:35.935Z,93.32
2018-09-01T00:42:36.083Z,94.08
2018-09-01T00:43:36.232Z,94.93
2018-09-01T00:44:36.381Z,94.65
2018-09-01T00:45:36.537Z,95.41
2018-09-01T00:46:36.683Z,95.60
2018-09-01T00:47:36.828Z,95.41
2018-09-01T00:48:36.976Z,95.41
2018-09-01T00:49:37.125Z,94.84
2018-09-01T00:50:37.276Z,94.93
2018-09-01T00:51:37.428Z,94.65
2018-09-01T00:52:37.572Z,95.12
2018-09-01T00:53:37.721Z,94.74
2018-09-01T00:54:37.868Z,94.84
2018-09-01T00:55:38.017Z,95.32
2018-09-01T00:56:38.167Z,95.12
2018-09-01T00:57:38.317Z,94.27
2018-09-01T00:58:38.464Z,94.17
2018-09-01T00:59:38.616Z,93.98
2018-09-01T01:00:38.764Z,94.84
2018-09-01T01:01:38.915Z,94.84
2018-09-01T01:02:39.065Z,95.12
2018-09-01T01:03:39.218Z,94.56
2018-09-01T01:04:39.363Z,95.70
2018-09-01T01:05:39.509Z,95.79
2018-09-01T01:06:39.659Z,95.03
2018-09-01T01:07:39.810Z,95.12
2018-09-01T01:08:39.960Z,95.03
2018-09-01T01:09:40.111Z,95.22
2018-09-01T01:10:40.259Z,95.41
2018-09-01T01:11:40.408Z,95.60
2018-09-01T01:12:40.557Z,95.79
2018-09-01T01:13:40.704Z,96.08
2018-09-01T01:14:40.846Z,95.79
2018-09-01T01:15:41.015Z,95.79
2018-09-01T01:16:41.164Z,96.36
2018-09-01T01:17:41.313Z,96.27
2018-09-01T01:18:41.460Z,95.51
2018-09-01T01:19:41.611Z,95.03
2018-09-01T01:20:41.762Z,95.70
2018-09-01T01:21:41.911Z,95.22
2018-09-01T01:22:42.058Z,95.51
2018-09-01T01:23:42.205Z,95.36
2018-09-01T01:24:42.355Z,95.65
2018-09-01T01:25:42.505Z,95.84
2018-09-01T01:26:42.654Z,95.94
2018-09-01T01:27:42.804Z,96.31
2018-09-01T01:28:42.952Z,96.60
2018-09-01T01:29:43.105Z,97.27
2018-09-01T01:30:43.252Z,97.55
2018-09-01T01:31:43.401Z,97.55
2018-09-01T01:32:43.552Z,97.46
2018-09-01T01:33:43.698Z,98.03
2018-09-01T01:34:43.851Z,98.13
2018-09-01T01:35:43.999Z,98.98
2018-09-01T01:36:44.147Z,98.41
2018-09-01T01:37:44.297Z,98.60
2018-09-01T01:38:44.446Z,98.79
2018-09-01T01:39:44.593Z,98.41
2018-09-01T01:40:44.746Z,98.41
2018-09-01T01:41:44.896Z,98.22
2018-09-01T01:42:45.044Z,98.13
2018-09-01T01:43:45.192Z,96.98
2018-09-01T01:44:45.342Z,97.74
2018-09-01T01:45:45.491Z,97.36
2018-09-01T01:46:45.643Z,97.08
2018-09-01T01:47:45.794Z,97.46
2018-09-01T01:48:45.944Z,96.98
2018-09-01T01:49:46.094Z,96.12
2018-09-01T01:50:46.242Z,96.12
2018-09-01T01:51:46.391Z,95.65
2018-09-01T01:52:46.541Z,95.65
2018-09-01T01:53:46.689Z,95.17
2018-09-01T01:54:46.837Z,95.56
2018-09-01T01:55:46.989Z,95.75
2018-09-01T01:56:47.138Z,94.98
2018-09-01T01:57:47.287Z,94.70
2018-09-01T01:58:47.436Z,95.46
2018-09-01T01:59:47.585Z,95.75
2018-09-01T02:00:47.731Z,96.51
2018-09-01T02:01:47.935Z,96.51
2018-09-01T02:02:48.032Z,97.27
2018-09-01T02:03:48.182Z,97.36
2018-09-01T02:04:48.328Z,97.27
2018-09-01T02:05:48.478Z,97.74
2018-09-01T02:06:48.628Z,97.98
2018-09-01T02:07:48.775Z,98.27
2018-09-01T02:08:48.921Z,97.98
2018-09-01T02:09:49.069Z,98.55
2018-09-01T02:10:49.222Z,98.46
2018-09-01T02:11:49.370Z,98.83
2018-09-01T02:12:49.520Z,99.12
2018-09-01T02:13:49.667Z,99.99
2018-09-01T02:14:49.814Z,99.99
2018-09-01T02:15:49.963Z,99.99
2018-09-01T02:16:50.112Z,99.99
2018-09-01T02:17:50.263Z,99.99
2018-09-01T02:18:50.411Z,99.99
2018-09-01T02:19:50.558Z,99.99
2018-09-01T02:20:50.709Z,99.99
2018-09-01T02:21:50.856Z,99.60
2018-09-01T02:22:51.005Z,99.99
2018-09-01T02:23:51.156Z,99.98
2018-09-01T02:24:51.306Z,99.60
2018-09-01T02:25:51.455Z,99.22
2018-09-01T02:26:51.601Z,99.88
2018-09-01T02:27:51.751Z,99.69
2018-09-01T02:28:51.903Z,99.99
2018-09-01T02:29:52.065Z,99.99
2018-09-01T02:30:52.195Z,99.88
2018-09-01T02:31:52.344Z,99.69
2018-09-01T02:32:52.492Z,99.69
2018-09-01T02:33:52.641Z,99.50
2018-09-01T02:34:52.794Z,99.31
2018-09-01T02:35:52.941Z,98.93
2018-09-01T02:36:53.089Z,99.88
2018-09-01T02:37:53.236Z,99.31
2018-09-01T02:38:53.384Z,98.93
2018-09-01T02:39:53.529Z,98.83
2018-09-01T02:40:53.679Z,99.60
2018-09-01T02:41:53.827Z,99.99
2018-09-01T02:42:53.978Z,99.99
2018-09-01T02:43:54.127Z,99.99
2018-09-01T02:44:54.278Z,99.99
2018-09-01T02:45:54.424Z,99.99
2018-09-01T02:46:54.584Z,99.99
2018-09-01T02:47:54.734Z,99.99
2018-09-01T02:48:54.879Z,99.99
2018-09-01T02:49:55.027Z,99.99
2018-09-01T02:50:55.176Z,99.99
2018-09-01T02:51:55.324Z,99.99
2018-09-01T02:52:55.473Z,99.99
2018-09-01T02:53:55.625Z,99.99
2018-09-01T02:54:55.772Z,99.99
2018-09-01T02:55:55.924Z,99.99
2018-09-01T02:56:56.072Z,99.99
2018-09-01T02:57:56.221Z,99.99
2018-09-01T02:58:56.370Z,99.99
2018-09-01T02:59:56.520Z,99.99
2018-09-01T03:00:56.673Z,99.99
2018-09-01T03:01:56.814Z,99.99
2018-09-01T03:02:56.964Z,99.99
2018-09-01T03:03:57.112Z,99.99
2018-09-01T03:04:57.259Z,99.99
2018-09-01T03:05:57.406Z,99.99
2018-09-01T03:06:57.556Z,99.99
2018-09-01T03:07:57.738Z,99.99
2018-09-01T03:08:57.857Z,99.99
2018-09-01T03:09:57.999Z,99.99
2018-09-01T03:10:58.140Z,99.99
2018-09-01T03:11:58.297Z,99.99
2018-09-01T03:12:58.445Z,99.99
2018-09-01T03:13:58.594Z,99.99
2018-09-01T03:14:58.744Z,99.99
2018-09-01T03:15:58.893Z,99.99
2018-09-01T03:16:59.037Z,99.99
2018-09-01T03:17:59.187Z,99.99
2018-09-01T03:18:59.335Z,99.99
2018-09-01T03:19:59.486Z,99.99
2018-09-01T03:20:59.633Z,99.99
2018-09-01T03:21:59.779Z,99.99
2018-09-01T03:22:59.929Z,99.99
2018-09-01T03:24:00.082Z,99.99
2018-09-01T03:25:00.231Z,99.99
2018-09-01T03:26:00.382Z,99.99
2018-09-01T03:27:00.524Z,99.99
2018-09-01T03:28:00.673Z,99.99
2018-09-01T03:29:00.820Z,99.99
2018-09-01T03:30:00.965Z,99.99
2018-09-01T03:31:01.116Z,99.99
2018-09-01T03:32:01.265Z,99.99
2018-09-01T03:33:01.414Z,99.99
2018-09-01T03:34:01.561Z,99.99
2018-09-01T03:35:01.715Z,99.99
2018-09-01T03:36:01.859Z,99.99
2018-09-01T03:37:02.007Z,99.99
2018-09-01T03:38:02.151Z,99.99
2018-09-01T03:39:02.300Z,99.99
2018-09-01T03:40:02.448Z,99.99
2018-09-01T03:41:02.599Z,99.99
2018-09-01T03:42:02.746Z,99.99
2018-09-01T03:43:02.896Z,99.99
2018-09-01T03:44:03.043Z,99.99
2018-09-01T03:45:03.191Z,99.99
2018-09-01T03:46:03.340Z,99.99
2018-09-01T03:47:03.488Z,99.99
2018-09-01T03:48:03.636Z,99.99
2018-09-01T03:49:03.785Z,99.99
2018-09-01T03:50:03.933Z,99.99
2018-09-01T03:51:04.080Z,99.99
2018-09-01T03:52:04.228Z,99.99
2018-09-01T03:53:04.376Z,99.99
2018-09-01T03:54:04.525Z,99.99
2018-09-01T03:55:04.673Z,99.99
2018-09-01T03:56:04.824Z,99.99
2018-09-01T03:57:04.973Z,99.99
2018-09-01T03:58:05.121Z,99.99
2018-09-01T03:59:05.264Z,99.99
2018-09-01T04:00:05.413Z,99.99
2018-09-01T04:01:05.561Z,99.99
2018-09-01T04:02:05.713Z,99.99
2018-09-01T04:03:05.859Z,99.99
2018-09-01T04:04:06.007Z,99.99
2018-09-01T04:05:06.154Z,99.99
2018-09-01T04:06:06.301Z,99.99
2018-09-01T04:07:06.452Z,99.99
2018-09-01T04:08:06.599Z,99.99
2018-09-01T04:09:06.748Z,99.99
2018-09-01T04:10:06.896Z,99.99
2018-09-01T04:11:07.044Z,99.99
2018-09-01T04:12:07.195Z,99.99
2018-09-01T04:13:07.343Z,99.99
2018-09-01T04:14:07.491Z,99.99
2018-09-01T04:15:07.641Z,99.99
2018-09-01T04:16:07.790Z,99.99
2018-09-01T04:17:07.936Z,99.99
2018-09-01T04:18:08.085Z,99.99
2018-09-01T04:19:08.231Z,99.99
2018-09-01T04:20:08.380Z,99.99
2018-09-01T04:21:08.529Z,99.99
2018-09-01T04:22:08.678Z,99.99
2018-09-01T04:23:08.826Z,99.99
2018-09-01T04:24:08.977Z,99.99
2018-09-01T04:25:09.125Z,99.99
2018-09-01T04:26:09.273Z,99.99
2018-09-01T04:27:09.423Z,99.99
2018-09-01T04:28:09.571Z,99.99
2018-09-01T04:29:09.718Z,99.99
2018-09-01T04:30:09.868Z,99.99
2018-09-01T04:31:10.018Z,99.99
2018-09-01T04:32:10.201Z,99.99
2018-09-01T04:33:10.311Z,99.99
2018-09-01T04:34:10.463Z,99.99
2018-09-01T04:35:10.610Z,99.99
2018-09-01T04:36:10.760Z,99.99
2018-09-01T04:37:10.907Z,99.99
2018-09-01T04:38:11.055Z,99.99
2018-09-01T04:39:11.203Z,99.99
2018-09-01T04:40:11.349Z,99.99
2018-09-01T04:41:11.503Z,99.99
2018-09-01T04:42:11.655Z,99.99
2018-09-01T04:43:11.799Z,99.99
2018-09-01T04:44:11.947Z,99.99
2018-09-01T04:45:12.096Z,99.99
2018-09-01T04:46:12.243Z,99.99
2018-09-01T04:47:12.455Z,99.99
2018-09-01T04:48:12.543Z,99.99
2018-09-01T04:49:12.690Z,99.99
2018-09-01T04:50:12.841Z,99.99
2018-09-01T04:51:12.987Z,99.99
2018-09-01T04:52:13.134Z,99.99
2018-09-01T04:53:13.282Z,99.99
2018-09-01T04:54:13.432Z,99.99
2018-09-01T04:55:13.580Z,99.99
2018-09-01T04:56:13.729Z,99.99
2018-09-01T04:57:13.879Z,99.99
2018-09-01T04:58:14.028Z,99.99
2018-09-01T04:59:14.174Z,99.99
2018-09-01T05:00:14.325Z,99.99
2018-09-01T05:01:14.510Z,99.99
2018-09-01T05:02:14.622Z,99.99
2018-09-01T05:03:14.769Z,99.99
2018-09-01T05:04:14.915Z,99.99
2018-09-01T05:05:15.065Z,99.99
2018-09-01T05:06:15.211Z,99.99
2018-09-01T05:07:15.363Z,99.99
2018-09-01T05:08:15.511Z,99.99
2018-09-01T05:09:15.662Z,99.99
2018-09-01T05:10:15.807Z,99.99
2018-09-01T05:11:15.958Z,99.99
2018-09-01T05:12:16.106Z,99.99
2018-09-01T05:13:16.255Z,99.99
2018-09-01T05:14:16.404Z,99.99
2018-09-01T05:15:16.556Z,99.99
2018-09-01T05:16:16.702Z,99.99
2018-09-01T05:17:16.850Z,99.99
2018-09-01T05:18:17.000Z,99.99
2018-09-01T05:19:17.149Z,99.99
2018-09-01T05:20:17.296Z,99.99
2018-09-01T05:21:17.446Z,99.99
2018-09-01T05:22:17.598Z,99.99
2018-09-01T05:23:17.743Z,99.99
2018-09-01T05:24:17.892Z,99.99
2018-09-01T05:25:18.039Z,99.99
2018-09-01T05:26:18.189Z,99.99
2018-09-01T05:27:18.340Z,99.99
2018-09-01T05:28:18.489Z,99.99
2018-09-01T05:29:18.639Z,99.99
2018-09-01T05:30:18.790Z,99.99
2018-09-01T05:31:18.939Z,99.99
2018-09-01T05:32:19.089Z,99.99
2018-09-01T05:33:19.243Z,99.99
2018-09-01T05:34:19.395Z,99.99
2018-09-01T05:35:19.539Z,99.99
2018-09-01T05:36:19.685Z,99.99
2018-09-01T05:37:19.833Z,99.99
2018-09-01T05:38:19.982Z,99.99
2018-09-01T05:39:20.132Z,99.99
2018-09-01T05:40:20.278Z,99.99
2018-09-01T05:41:20.427Z,99.99
2018-09-01T05:42:20.581Z,99.99
2018-09-01T05:43:20.727Z,99.99
2018-09-01T05:44:20.873Z,99.99
2018-09-01T05:45:21.024Z,99.99
2018-09-01T05:46:21.172Z,99.99
2018-09-01T05:47:21.321Z,99.99
2018-09-01T05:48:21.470Z,99.99
2018-09-01T05:49:21.618Z,99.99
2018-09-01T05:50:21.765Z,99.99
2018-09-01T05:51:21.915Z,99.99
2018-09-01T05:52:22.063Z,99.99
2018-09-01T05:53:22.218Z,99.99
2018-09-01T05:54:22.360Z,99.99
2018-09-01T05:55:22.506Z,99.99
2018-09-01T05:56:22.656Z,99.99
2018-09-01T05:57:22.804Z,99.99
2018-09-01T05:58:22.953Z,99.99
2018-09-01T05:59:23.102Z,99.99
2018-09-01T06:00:23.263Z,99.99
2018-09-01T06:01:23.399Z,99.99
2018-09-01T06:02:23.548Z,99.99
2018-09-01T06:03:23.697Z,99.99
2018-09-01T06:04:23.845Z,99.99
2018-09-01T06:05:23.994Z,99.99
2018-09-01T06:06:24.215Z,99.99
2018-09-01T06:07:24.291Z,99.99
2018-09-01T06:08:24.442Z,99.99
2018-09-01T06:09:24.591Z,99.99
2018-09-01T06:10:24.742Z,99.99
2018-09-01T06:11:24.894Z,99.99
2018-09-01T06:12:25.039Z,99.99
2018-09-01T06:13:25.190Z,99.99
2018-09-01T06:14:25.342Z,99.99
2018-09-01T06:15:25.491Z,99.99
2018-09-01T06:16:25.642Z,99.99
2018-09-01T06:17:25.815Z,99.99
2018-09-01T06:18:25.942Z,99.99
2018-09-01T06:19:26.090Z,99.99
2018-09-01T06:20:26.242Z,99.99
2018-09-01T06:21:26.389Z,99.99
2018-09-01T06:22:26.544Z,99.99
2018-09-01T06:23:26.690Z,99.99
2018-09-01T06:24:26.838Z,99.99
2018-09-01T06:25:27.015Z,99.99
2018-09-01T06:26:27.135Z,99.99
2018-09-01T06:27:27.288Z,99.41
2018-09-01T06:28:27.437Z,99.79
2018-09-01T06:29:27.585Z,99.79
2018-09-01T06:30:27.739Z,99.99
2018-09-01T06:31:27.885Z,99.99
2018-09-01T06:32:28.033Z,99.46
2018-09-01T06:33:28.184Z,99.65
2018-09-01T06:34:28.334Z,98.98
2018-09-01T06:35:28.484Z,99.84
2018-09-01T06:36:28.630Z,99.74
2018-09-01T06:37:28.791Z,99.27
2018-09-01T06:38:28.929Z,99.17
2018-09-01T06:39:29.080Z,98.32
2018-09-01T06:40:29.226Z,98.60
2018-09-01T06:41:29.380Z,98.32
2018-09-01T06:42:29.527Z,98.41
2018-09-01T06:43:29.676Z,98.22
2018-09-01T06:44:29.841Z,98.32
2018-09-01T06:45:29.989Z,99.08
2018-09-01T06:46:30.139Z,99.08
2018-09-01T06:47:30.287Z,99.17
2018-09-01T06:48:30.438Z,99.36
2018-09-01T06:49:30.585Z,99.99
2018-09-01T06:50:30.736Z,99.99
2018-09-01T06:51:30.907Z,99.99
2018-09-01T06:52:31.037Z,99.99
2018-09-01T06:53:31.187Z,99.99
2018-09-01T06:54:31.333Z,99.93
2018-09-01T06:55:31.491Z,99.99
2018-09-01T06:56:31.639Z,99.99
2018-09-01T06:57:31.786Z,99.99
2018-09-01T06:58:31.934Z,99.99
2018-09-01T06:59:32.092Z,99.99
2018-09-01T07:00:32.235Z,99.99
2018-09-01T07:01:32.387Z,99.99
2018-09-01T07:02:32.538Z,99.99
2018-09-01T07:03:32.687Z,99.99
2018-09-01T07:04:32.838Z,99.99
2018-09-01T07:05:32.989Z,99.99
2018-09-01T07:06:33.143Z,99.99
2018-09-01T07:07:33.289Z,99.98
2018-09-01T07:08:33.470Z,99.99
2018-09-01T07:09:33.596Z,99.99
2018-09-01T07:10:33.739Z,99.22
2018-09-01T07:11:33.888Z,98.55
2018-09-01T07:12:34.039Z,98.84
2018-09-01T07:13:34.190Z,97.79
2018-09-01T07:14:34.344Z,97.89
2018-09-01T07:15:34.493Z,97.56
2018-09-01T07:16:34.640Z,97.56
2018-09-01T07:17:34.793Z,97.36
2018-09-01T07:18:34.943Z,96.32
2018-09-01T07:19:35.093Z,96.51
2018-09-01T07:20:35.243Z,95.84
2018-09-01T07:21:35.394Z,96.22
2018-09-01T07:22:35.541Z,95.56
2018-09-01T07:23:35.691Z,95.22
2018-09-01T07:24:35.843Z,95.98
2018-09-01T07:25:35.994Z,95.32
2018-09-01T07:26:36.144Z,94.93
2018-09-01T07:27:36.294Z,95.12
2018-09-01T07:28:36.445Z,94.27
2018-09-01T07:29:36.596Z,93.79
2018-09-01T07:30:36.833Z,93.36
2018-09-01T07:31:37.277Z,93.55
2018-09-01T07:32:37.045Z,93.36
2018-09-01T07:33:37.195Z,92.79
2018-09-01T07:34:37.346Z,93.17
2018-09-01T07:35:37.496Z,92.32
2018-09-01T07:36:37.645Z,91.93
2018-09-01T07:37:37.796Z,91.74
2018-09-01T07:38:37.949Z,91.93
2018-09-01T07:39:38.100Z,91.93
2018-09-01T07:40:38.249Z,91.74
2018-09-01T07:41:38.398Z,91.64
2018-09-01T07:42:38.549Z,91.69
2018-09-01T07:43:38.715Z,91.12
2018-09-01T07:44:38.853Z,91.12
2018-09-01T07:45:39.003Z,90.83
2018-09-01T07:46:39.154Z,90.45
2018-09-01T07:47:39.307Z,90.36
2018-09-01T07:48:39.456Z,89.69
2018-09-01T07:49:39.611Z,90.36
2018-09-01T07:50:39.758Z,90.21
2018-09-01T07:51:39.909Z,90.21
2018-09-01T07:52:40.059Z,90.59
2018-09-01T07:53:40.212Z,89.25
2018-09-01T07:54:40.478Z,88.78
2018-09-01T07:55:40.513Z,89.35
2018-09-01T07:56:40.674Z,88.78
2018-09-01T07:57:40.821Z,88.92
2018-09-01T07:58:40.968Z,89.30
2018-09-01T07:59:41.118Z,88.44
2018-09-01T08:00:41.267Z,88.77
2018-09-01T08:01:41.420Z,87.05
2018-09-01T08:02:41.569Z,86.86
2018-09-01T08:03:41.721Z,87.43
2018-09-01T08:04:41.873Z,86.86
2018-09-01T08:05:42.025Z,86.52
2018-09-01T08:06:42.180Z,86.04
2018-09-01T08:07:42.337Z,85.38
2018-09-01T08:08:42.488Z,85.75
2018-09-01T08:09:42.640Z,85.85
2018-09-01T08:10:42.796Z,84.70
2018-09-01T08:11:42.947Z,85.75
2018-09-01T08:12:43.101Z,85.18
2018-09-01T08:13:43.285Z,84.70
2018-09-01T08:14:43.458Z,84.42
2018-09-01T08:15:43.555Z,84.65
2018-09-01T08:16:43.713Z,84.42
2018-09-01T08:17:43.860Z,85.22
2018-09-01T08:18:44.021Z,84.65
2018-09-01T08:19:44.171Z,84.55
2018-09-01T08:20:44.322Z,83.03
2018-09-01T08:21:44.474Z,82.83
2018-09-01T08:22:44.629Z,83.69
2018-09-01T08:23:44.781Z,83.03
2018-09-01T08:24:44.930Z,82.49
2018-09-01T08:25:45.083Z,82.87
2018-09-01T08:26:45.237Z,81.92
2018-09-01T08:27:45.400Z,82.40
2018-09-01T08:28:45.543Z,81.82
2018-09-01T08:29:45.695Z,81.38
2018-09-01T08:30:45.850Z,80.52
2018-09-01T08:31:46.001Z,81.00
2018-09-01T08:32:46.152Z,80.67
2018-09-01T08:33:46.399Z,80.77
2018-09-01T08:34:46.462Z,81.34
2018-09-01T08:35:46.617Z,81.57
2018-09-01T08:36:46.772Z,81.38
2018-09-01T08:37:46.921Z,81.38
2018-09-01T08:38:47.075Z,80.90
2018-09-01T08:39:47.227Z,80.24
2018-09-01T08:40:47.380Z,79.75
2018-09-01T08:41:47.533Z,79.60
2018-09-01T08:42:47.685Z,79.80
2018-09-01T08:43:47.838Z,80.37
2018-09-01T08:44:47.992Z,79.99
2018-09-01T08:45:48.144Z,79.80
2018-09-01T08:46:48.303Z,79.13
2018-09-01T08:47:48.453Z,78.84
2018-09-01T08:48:48.606Z,78.17
2018-09-01T08:49:48.758Z,78.17
2018-09-01T08:50:48.912Z,77.97
2018-09-01T08:51:49.065Z,78.02
2018-09-01T08:52:49.219Z,78.11
2018-09-01T08:53:49.374Z,77.06
2018-09-01T08:54:49.531Z,77.44
2018-09-01T08:55:49.677Z,77.06
2018-09-01T08:56:49.834Z,76.90
2018-09-01T08:57:49.986Z,77.38
2018-09-01T08:58:50.142Z,76.14
2018-09-01T08:59:50.295Z,76.23
2018-09-01T09:00:50.448Z,76.32
2018-09-01T09:01:50.604Z,74.12
2018-09-01T09:02:50.755Z,74.89
2018-09-01T09:03:50.911Z,74.69
2018-09-01T09:04:51.064Z,74.22
2018-09-01T09:05:51.219Z,73.83
2018-09-01T09:06:51.374Z,74.12
2018-09-01T09:07:51.524Z,74.22
2018-09-01T09:08:51.677Z,74.12
2018-09-01T09:09:51.832Z,72.97
2018-09-01T09:10:51.987Z,72.97
2018-09-01T09:11:52.141Z,72.49
2018-09-01T09:12:52.296Z,70.96
2018-09-01T09:13:52.452Z,71.25
2018-09-01T09:14:52.605Z,72.39
2018-09-01T09:15:52.757Z,71.57
2018-09-01T09:16:52.912Z,71.28
2018-09-01T09:17:53.067Z,70.70
2018-09-01T09:18:53.222Z,69.07
2018-09-01T09:19:53.375Z,68.98
2018-09-01T09:20:53.531Z,68.79
2018-09-01T09:21:53.682Z,68.40
2018-09-01T09:22:53.835Z,67.25
2018-09-01T09:23:53.993Z,67.06
2018-09-01T09:24:54.145Z,67.16
2018-09-01T09:25:54.298Z,65.33
2018-09-01T09:26:54.452Z,63.32
2018-09-01T09:27:54.606Z,64.98
2018-09-01T09:28:54.761Z,66.13
2018-09-01T09:29:54.915Z,63.92
2018-09-01T09:30:55.069Z,63.92
2018-09-01T09:31:55.222Z,61.33
2018-09-01T09:32:55.380Z,60.18
2018-09-01T09:33:55.533Z,59.12
2018-09-01T09:34:55.682Z,59.41
2018-09-01T09:35:55.838Z,59.51
2018-09-01T09:36:55.995Z,58.55
2018-09-01T09:37:56.145Z,59.41
2018-09-01T09:38:56.302Z,60.47
2018-09-01T09:39:56.455Z,61.27
2018-09-01T09:40:56.611Z,61.46
2018-09-01T09:41:56.819Z,61.55
2018-09-01T09:42:56.920Z,61.30
2018-09-01T09:43:57.072Z,61.20
2018-09-01T09:44:57.229Z,61.68
2018-09-01T09:45:57.385Z,61.78
2018-09-01T09:46:57.536Z,61.78
2018-09-01T09:47:57.692Z,61.20
2018-09-01T09:48:57.846Z,60.91
2018-09-01T09:49:58.002Z,60.53
2018-09-01T09:50:58.158Z,60.34
2018-09-01T09:51:58.314Z,61.11
2018-09-01T09:52:58.487Z,61.30
2018-09-01T09:53:58.624Z,61.49
2018-09-01T09:54:58.777Z,60.63
2018-09-01T09:55:58.939Z,61.01
2018-09-01T09:56:59.089Z,60.43
2018-09-01T09:57:59.246Z,60.43
2018-09-01T09:58:59.400Z,60.82
2018-09-01T09:59:59.556Z,60.66
2018-09-01T10:00:59.773Z,59.89
2018-09-01T10:01:59.868Z,58.92
2018-09-01T10:03:00.025Z,58.92
2018-09-01T10:04:00.212Z,58.09
2018-09-01T10:05:00.364Z,57.51
2018-09-01T10:06:00.538Z,57.42
2018-09-01T10:07:00.674Z,58.47
2018-09-01T10:08:00.832Z,59.02
2018-09-01T10:09:00.991Z,58.95
2018-09-01T10:10:01.143Z,59.24
2018-09-01T10:11:01.332Z,58.95
2018-09-01T10:12:01.454Z,59.99
2018-09-01T10:13:01.606Z,59.72
2018-09-01T10:14:01.761Z,59.63
2018-09-01T10:15:01.914Z,59.44
2018-09-01T10:16:02.080Z,59.34
2018-09-01T10:17:02.225Z,58.50
2018-09-01T10:18:02.381Z,58.31
2018-09-01T10:19:02.540Z,57.54
2018-09-01T10:20:02.726Z,57.67
2018-09-01T10:21:02.846Z,57.57
2018-09-01T10:22:02.999Z,57.28
2018-09-01T10:23:03.158Z,58.34
2018-09-01T10:24:03.312Z,58.22
2018-09-01T10:25:03.468Z,58.02
2018-09-01T10:26:03.626Z,57.57
2018-09-01T10:27:03.814Z,58.12
2018-09-01T10:28:03.944Z,58.34
2018-09-01T10:29:04.099Z,58.05
2018-09-01T10:30:04.275Z,56.63
2018-09-01T10:31:04.414Z,54.42
2018-09-01T10:32:04.567Z,53.94
2018-09-01T10:33:04.726Z,54.68
2018-09-01T10:34:04.900Z,56.15
2018-09-01T10:35:05.037Z,55.09
2018-09-01T10:36:05.192Z,54.64
2018-09-01T10:37:05.348Z,53.07
2018-09-01T10:38:05.502Z,52.40
2018-09-01T10:39:05.661Z,51.82
2018-09-01T10:40:05.817Z,52.59
2018-09-01T10:41:05.973Z,52.40
2018-09-01T10:42:06.128Z,52.11
2018-09-01T10:43:06.287Z,53.27
2018-09-01T10:44:06.443Z,52.87
2018-09-01T10:45:06.599Z,52.11
2018-09-01T10:46:06.757Z,51.17
2018-09-01T10:47:06.911Z,51.36
2018-09-01T10:48:07.080Z,50.69
2018-09-01T10:49:07.276Z,49.70
2018-09-01T10:50:07.379Z,50.76
2018-09-01T10:51:07.537Z,50.40
2018-09-01T10:52:07.692Z,50.49
2018-09-01T10:53:07.849Z,51.26
2018-09-01T10:54:08.007Z,49.91
2018-09-01T10:55:08.165Z,49.12
2018-09-01T10:56:08.323Z,49.15
2018-09-01T10:57:08.484Z,48.86
2018-09-01T10:58:08.642Z,48.86
2018-09-01T10:59:08.989Z,49.34
2018-09-01T11:00:08.957Z,49.34
2018-09-01T11:01:09.112Z,49.15
2018-09-01T11:02:09.268Z,49.07
2018-09-01T11:03:09.425Z,48.88
2018-09-01T11:04:09.581Z,48.69
2018-09-01T11:05:09.807Z,48.59
2018-09-01T11:06:09.901Z,48.01
2018-09-01T11:07:10.058Z,47.82
2018-09-01T11:08:10.214Z,47.44
2018-09-01T11:09:10.375Z,47.82
2018-09-01T11:10:10.529Z,49.07
2018-09-01T11:11:10.685Z,48.88
2018-09-01T11:12:10.842Z,48.49
2018-09-01T11:13:11.001Z,47.22
2018-09-01T11:14:11.155Z,47.97
2018-09-01T11:15:11.315Z,48.86
2018-09-01T11:16:11.479Z,48.57
2018-09-01T11:17:11.630Z,48.18
2018-09-01T11:18:11.786Z,47.22
2018-09-01T11:19:11.944Z,47.22
2018-09-01T11:20:12.154Z,48.18
2018-09-01T11:21:12.262Z,47.31
2018-09-01T11:22:12.420Z,46.62
2018-09-01T11:23:12.578Z,47.03
2018-09-01T11:24:12.736Z,46.06
2018-09-01T11:25:12.892Z,46.35
2018-09-01T11:26:13.050Z,46.64
2018-09-01T11:27:13.217Z,46.66
2018-09-01T11:28:13.455Z,46.28
2018-09-01T11:29:13.522Z,45.60
2018-09-01T11:30:13.680Z,45.03
2018-09-01T11:31:13.833Z,45.51
2018-09-01T11:32:14.006Z,45.41
2018-09-01T11:33:14.148Z,45.70
2018-09-01T11:34:14.307Z,45.99
2018-09-01T11:35:14.463Z,45.72
2018-09-01T11:36:14.621Z,45.62
2018-09-01T11:37:14.779Z,45.43
2018-09-01T11:38:14.933Z,45.14
2018-09-01T11:39:15.091Z,44.64
2018-09-01T11:40:15.247Z,45.14
2018-09-01T11:41:15.405Z,44.54
2018-09-01T11:42:15.563Z,44.83
2018-09-01T11:43:15.772Z,44.37
2018-09-01T11:44:15.877Z,45.14
2018-09-01T11:45:16.039Z,45.41
2018-09-01T11:46:16.193Z,45.70
2018-09-01T11:47:16.351Z,45.51
2018-09-01T11:48:16.515Z,46.28
2018-09-01T11:49:16.671Z,45.41
2018-09-01T11:50:16.829Z,44.90
2018-09-01T11:51:16.988Z,43.75
2018-09-01T11:52:17.146Z,44.11
2018-09-01T11:53:17.394Z,44.90
2018-09-01T11:54:17.468Z,44.81
2018-09-01T11:55:17.628Z,44.90
2018-09-01T11:56:17.789Z,44.15
2018-09-01T11:57:17.941Z,43.48
2018-09-01T11:58:18.119Z,43.38
2018-09-01T11:59:18.251Z,43.31
2018-09-01T12:00:18.405Z,43.41
2018-09-01T12:01:18.562Z,42.93
2018-09-01T12:02:18.797Z,42.52
2018-09-01T12:03:18.876Z,43.29
2018-09-01T12:04:19.035Z,43.79
2018-09-01T12:05:19.192Z,43.19
2018-09-01T12:06:19.352Z,43.10
2018-09-01T12:07:19.506Z,43.19
2018-09-01T12:08:19.664Z,43.70
2018-09-01T12:09:19.834Z,43.21
2018-09-01T12:10:19.985Z,45.04
2018-09-01T12:11:20.144Z,43.33
2018-09-01T12:12:20.294Z,42.94
2018-09-01T12:13:20.457Z,43.14
2018-09-01T12:14:20.615Z,42.97
2018-09-01T12:15:20.799Z,42.46
2018-09-01T12:16:20.931Z,41.78
2018-09-01T12:17:21.089Z,42.68
2018-09-01T12:18:21.286Z,42.94
2018-09-01T12:19:21.400Z,40.82
2018-09-01T12:20:21.561Z,41.60
2018-09-01T12:21:21.719Z,41.96
2018-09-01T12:22:21.968Z,42.83
2018-09-01T12:23:22.040Z,43.02
2018-09-01T12:24:22.196Z,42.75
2018-09-01T12:25:22.353Z,42.73
2018-09-01T12:26:22.512Z,42.03
2018-09-01T12:27:22.668Z,42.80
2018-09-01T12:28:22.884Z,43.02
2018-09-01T12:29:22.985Z,43.10
2018-09-01T12:30:23.143Z,42.32
2018-09-01T12:31:23.308Z,41.67
2018-09-01T12:32:23.464Z,41.50
2018-09-01T12:33:23.619Z,41.98
2018-09-01T12:34:23.779Z,42.08
2018-09-01T12:35:23.972Z,42.36
2018-09-01T12:36:24.156Z,41.71
2018-09-01T12:37:24.289Z,40.75
2018-09-01T12:38:24.450Z,41.61
2018-09-01T12:39:24.609Z,41.02
2018-09-01T12:40:24.767Z,41.42
2018-09-01T12:41:24.927Z,41.02
2018-09-01T12:42:25.087Z,40.82
2018-09-01T12:43:25.244Z,39.78
2018-09-01T12:44:25.404Z,40.17
2018-09-01T12:45:25.561Z,40.19
2018-09-01T12:46:25.725Z,40.17
2018-09-01T12:47:25.877Z,40.26
2018-09-01T12:48:26.038Z,40.57
2018-09-01T12:49:26.194Z,40.86
2018-09-01T12:50:26.357Z,40.57
2018-09-01T12:51:26.516Z,39.72
2018-09-01T12:52:26.683Z,39.90
2018-09-01T12:53:26.834Z,39.34
2018-09-01T12:54:26.993Z,38.76